• Join FlightAware (Why Join?)
  • Login
  • US Flag 
07:15AM EDT


 

Airport Tracker/Info


-or-


 

Live Flight TrackerFlight Track Log ✈ N618JB ✈ 17-Apr-2013 ✈ KLGB - KIAD

Flight Track Log - Related Links

Times and Time Zones

All times are in EDT time to prevent confusion due to time zone crossing. See the N618JB flight status page for this flight to view local times or setup timezone preferences in your user account.

Time Position Orientation Groundspeed Altitude Reporting Facility
EDT Latitude Longitude Course Direction KTS MPH feet Rate Location/Type
01:07AM 33.8372 -118.1747 254° West 163 188 1,700  Level Los Angeles Center
01:08AM 33.8275 -118.2164 254° West 190 219 3,400 1,380 Climbing Los Angeles Center
01:09AM 33.7683 -118.2319 192° South 212 244 4,600 1,740 Climbing Los Angeles Center
01:10AM 33.6975 -118.2536 194° South 250 288 7,000 2,160 Climbing Los Angeles Center
01:11AM 33.6258 -118.2744 194° South 257 296 9,100 1,860 Climbing Los Angeles Center
01:12AM 33.5533 -118.2383 157° South 294 338 10,900 1,560 Climbing Los Angeles Center
01:13AM 33.5867 -118.1347 69° East 292 336 12,300 1,680 Climbing Los Angeles Center
01:14AM 33.6236 -118.0469 63° Northeast 310 357 14,400 1,440 Climbing Los Angeles Center
01:15AM 33.6247 -117.9375 89° East 333 383 15,300 960 Climbing Los Angeles Center
01:16AM 33.6261 -117.8197 89° East 350 403 16,400 840 Climbing Los Angeles Center
01:17AM 33.6272 -117.6906 89° East 379 436 17,100 1,140 Climbing Los Angeles Center
01:18AM 33.6289 -117.5603 89° East 389 448 18,800 1,740 Climbing Los Angeles Center
01:19AM 33.6286 -117.4267 90° East 397 457 20,700 1,560 Climbing Los Angeles Center
01:20AM 33.6289 -117.2928 90° East 402 463 22,000 1,320 Climbing Los Angeles Center
01:21AM 33.6289 -117.1514 90° East 423 487 23,500 1,020 Climbing Los Angeles Center
01:22AM 33.6297 -116.9747 90° East 439 505 24,100 780 Climbing Los Angeles Center
01:23AM 33.6286 -116.8422 91° East 463 533 25,100 1,080 Climbing Los Angeles Center
01:24AM 33.6286 -116.6533 90° East 471 542 26,300 1,020 Climbing Los Angeles Center
01:25AM 33.6294 -116.4914 90° East 482 555 27,200 840 Climbing Los Angeles Center
01:26AM 33.6283 -116.3283 90° East 487 560 28,100 780 Climbing Los Angeles Center
01:27AM 33.6272 -116.1608 90° East 499 574 28,900 780 Climbing Los Angeles Center
01:28AM 33.6236 -115.9925 91° East 503 579 29,700 720 Climbing Los Angeles Center
01:29AM 33.6203 -115.8250 91° East 503 579 30,400 660 Climbing Los Angeles Center
01:30AM 33.6178 -115.6533 91° East 509 586 31,100 780 Climbing Los Angeles Center
01:31AM 33.6119 -115.4778 92° East 522 601 32,100 780 Climbing Los Angeles Center
01:32AM 33.6081 -115.3042 91° East 521 600 32,800 660 Climbing Los Angeles Center
01:33AM 33.6050 -115.1286 91° East 525 604 33,500 720 Climbing Los Angeles Center
01:34AM 33.5981 -114.9525 93° East 529 609 34,300 600 Climbing Los Angeles Center
01:35AM 33.5936 -114.7775 92° East 527 606 34,800 300 Climbing Los Angeles Center
01:36AM 33.5808 -114.6025 95° East 529 609 35,000 120 Climbing Los Angeles Center
01:37AM 33.5725 -114.4778 95° East 531 611 35,000 -120 Level Albuquerque Center
01:38AM 33.5558 -114.3006 96° East 534 615 34,900 -60 Descending Albuquerque Center
01:39AM 33.5394 -114.1242 96° East 533 613 34,900  Level Albuquerque Center
01:40AM 33.5225 -113.9456 96° East 537 618 34,900  Level Albuquerque Center
01:41AM 33.5050 -113.7664 97° East 540 621 35,000  Climbing Albuquerque Center
01:42AM 33.4881 -113.5864 96° East 542 624 35,000 -60 Level Albuquerque Center
01:43AM 33.4708 -113.4067 97° East 543 625 34,900  Descending Albuquerque Center
01:44AM 33.4617 -113.2244 93° East 549 632 35,000  Climbing Albuquerque Center
01:45AM 33.4589 -113.0403 91° East 551 634 35,000  Level Albuquerque Center
01:46AM 33.4544 -112.8556 92° East 552 635 35,000  Level Albuquerque Center
01:47AM 33.4589 -112.6706 88° East 554 638 35,000  Level Albuquerque Center
01:48AM 33.4742 -112.4808 84° East 560 644 35,000  Level Albuquerque Center
01:49AM 33.4881 -112.2944 85° East 565 650 35,000  Level Albuquerque Center
01:50AM 33.5022 -112.1067 85° East 569 655 35,000  Level Albuquerque Center
01:51AM 33.5150 -111.9219 85° East 566 651 35,000  Level Albuquerque Center
01:52AM 33.5283 -111.7367 85° East 565 650 35,000  Level Albuquerque Center
01:53AM 33.5411 -111.5511 85° East 567 652 35,000  Level Albuquerque Center
01:54AM 33.5528 -111.3639 86° East 569 655 35,000  Level Albuquerque Center
01:55AM 33.5681 -111.1369 85° East 572 658 35,000  Level Albuquerque Center
01:56AM 33.5794 -110.9472 86° East 576 663 35,000  Level Albuquerque Center
01:57AM 33.5922 -110.7553 85° East 579 666 35,000  Level Albuquerque Center
01:58AM 33.6031 -110.5633 86° East 579 666 35,000  Level Albuquerque Center
01:59AM 33.6144 -110.3586 86° East 580 667 35,000  Level Albuquerque Center
02:00AM 33.6250 -110.1678 86° East 579 666 35,000  Level Albuquerque Center
02:01AM 33.6347 -109.9750 86° East 582 670 35,000  Level Albuquerque Center
02:02AM 33.6464 -109.7803 86° East 586 674 35,000  Level Albuquerque Center
02:03AM 33.6575 -109.5881 86° East 583 671 35,000  Level Albuquerque Center
02:04AM 33.6653 -109.3933 87° East 585 673 35,000  Level Albuquerque Center
02:05AM 33.6750 -109.2003 86° East 583 671 35,000  Level Albuquerque Center
02:06AM 33.6844 -109.0075 87° East 581 669 35,000  Level Albuquerque Center
02:07AM 33.6936 -108.8153 87° East 578 665 35,000  Level Albuquerque Center
02:08AM 33.7011 -108.6183 87° East 586 674 35,000  Level Albuquerque Center
02:09AM 33.7089 -108.4219 87° East 589 678 35,000  Level Albuquerque Center
02:10AM 33.7167 -108.2264 87° East 589 678 35,000 -60 Level Albuquerque Center
02:11AM 33.7242 -108.0094 88° East 585 673 34,900  Descending Albuquerque Center
02:12AM 33.7314 -107.8125 87° East 587 676 35,000  Climbing Albuquerque Center
02:13AM 33.7392 -107.6158 87° East 588 677 35,000 -60 Level Albuquerque Center
02:14AM 33.7456 -107.4206 88° East 587 676 34,900 -60 Descending Albuquerque Center
02:15AM 33.7522 -107.2283 88° East 580 667 34,900  Level Albuquerque Center
02:16AM 33.7583 -107.0342 88° East 579 666 34,900  Level Albuquerque Center
02:17AM 33.7636 -106.8369 88° East 583 671 34,900  Level Albuquerque Center
02:18AM 33.7700 -106.6397 88° East 588 677 35,000  Climbing Albuquerque Center
02:19AM 33.7739 -106.4411 89° East 592 681 35,000  Level Albuquerque Center
02:20AM 33.7794 -106.2436 88° East 592 681 35,100  Climbing Albuquerque Center
02:21AM 33.7844 -106.0467 88° East 591 680 35,000 -60 Descending Albuquerque Center
02:22AM 33.7894 -105.8339 88° East 589 678 35,000  Level Albuquerque Center
02:23AM 33.7933 -105.6372 89° East 587 676 35,000  Level Albuquerque Center
02:24AM 33.7969 -105.4400 89° East 587 676 35,100  Climbing Albuquerque Center
02:25AM 33.7989 -105.2308 89° East 589 678 35,000 -60 Descending Albuquerque Center
02:26AM 33.8019 -105.0367 89° East 580 667 35,000 -60 Level Albuquerque Center
02:27AM 33.8042 -104.8436 89° East 579 666 34,900  Descending Albuquerque Center
02:28AM 33.8064 -104.6464 89° East 585 673 35,000  Climbing Albuquerque Center
02:29AM 33.8094 -104.4511 89° East 583 671 35,000  Level Albuquerque Center
02:30AM 33.8111 -104.2539 89° East 587 676 35,100  Climbing Albuquerque Center
02:32AM 33.8131 -104.0567 89° East 588 677 35,000 -60 Descending Albuquerque Center
02:33AM 33.8131 -103.8606 90° East 585 673 35,000  Level Albuquerque Center
02:34AM 33.8147 -103.6803 89° East 583 671 35,000  Level Albuquerque Center
02:35AM 33.8142 -103.4831 90° East 588 677 35,000 180 Level Albuquerque Center
02:36AM 33.8156 -103.2811 89° East 597 687 35,400 540 Climbing Albuquerque Center
02:37AM 33.8150 -103.0811 90° East 599 689 36,100 780 Climbing Albuquerque Center
02:38AM 33.8133 -102.8844 91° East 591 680 37,000 420 Climbing Albuquerque Center
02:39AM 33.8131 -102.6939 90° East 578 665 37,000  Level Albuquerque Center
02:39AM 33.8128 -102.6156 90° East 580 667 37,000  Level Fort Worth Center
02:40AM 33.8108 -102.4053 91° East 566 651 37,000  Level Fort Worth Center
02:41AM 33.8092 -102.2353 91° East 571 657 37,000  Level Fort Worth Center
02:42AM 33.8086 -102.0278 90° East 571 657 37,100  Climbing Fort Worth Center
02:43AM 33.8072 -101.8328 90° East 571 657 37,000 -60 Descending Fort Worth Center
02:44AM 33.8056 -101.6403 91° East 577 664 37,000  Level Fort Worth Center
02:45AM 33.8014 -101.4478 91° East 572 658 37,000  Level Fort Worth Center
02:46AM 33.7972 -101.2550 91° East 580 667 37,000  Level Fort Worth Center
02:47AM 33.7944 -101.0625 91° East 571 657 37,000  Level Fort Worth Center
02:48AM 33.7892 -100.8797 92° East 565 650 37,000  Level Fort Worth Center
02:49AM 33.7922 -100.6950 89° East 555 639 37,000  Level Fort Worth Center
02:50AM 33.8053 -100.5081 85° East 555 639 37,000  Level Fort Worth Center
02:51AM 33.8222 -100.3236 84° East 555 639 37,000 -60 Level Fort Worth Center
02:52AM 33.8369 -100.1392 84° East 554 638 36,900  Descending Fort Worth Center
02:53AM 33.8514 -99.9494 85° East 559 643 37,000  Climbing Fort Worth Center
02:54AM 33.8675 -99.7622 84° East 559 643 37,000  Level Fort Worth Center
02:55AM 33.8689 -99.5672 89° East 564 649 37,000  Level Fort Worth Center
02:56AM 33.8714 -99.4122 89° East 570 656 37,000  Level Fort Worth Center
02:57AM 33.8683 -99.2044 91° East 570 656 37,000  Level Fort Worth Center
02:58AM 33.8583 -99.0117 94° East 570 656 37,000  Level Fort Worth Center
02:59AM 33.8439 -98.8289 95° East 575 662 37,000  Level Fort Worth Center
03:00AM 33.8044 -98.6233 103° East 562 647 37,000  Level Fort Worth Center
03:01AM 33.7706 -98.4381 102° East 562 647 37,000  Level Fort Worth Center
03:02AM 33.7386 -98.2503 102° East 572 658 37,000  Level Fort Worth Center
03:03AM 33.7083 -98.0678 101° East 562 647 37,000  Level Fort Worth Center
03:04AM 33.6778 -97.9078 103° East 562 647 37,000  Level Fort Worth Center
03:05AM 33.6450 -97.7253 102° East 562 647 37,000  Level Fort Worth Center
03:06AM 33.6306 -97.5358 95° East 568 654 37,100  Climbing Fort Worth Center
03:07AM 33.6767 -97.3586 73° East 556 640 37,000 -60 Descending Fort Worth Center
03:08AM 33.7306 -97.1686 71° East 551 634 37,000  Level Fort Worth Center
03:09AM 33.7803 -96.9936 71° East 556 640 37,000  Level Fort Worth Center
03:10AM 33.8317 -96.8183 71° East 551 634 37,000  Level Fort Worth Center
03:11AM 33.8808 -96.6478 71° East 541 623 37,000  Level Fort Worth Center
03:12AM 33.9300 -96.4747 71° East 541 623 37,000  Level Fort Worth Center
03:13AM 33.9786 -96.3039 71° East 541 623 37,000  Level Fort Worth Center
03:14AM 34.0250 -96.1328 72° East 541 623 37,000  Level Fort Worth Center
03:15AM 34.0711 -95.9617 72° East 536 617 37,000  Level Fort Worth Center
03:16AM 34.1128 -95.7956 73° East 526 605 37,000  Level Fort Worth Center
03:17AM 34.1608 -95.6289 71° East 521 600 37,100  Climbing Fort Worth Center
03:19AM 34.2435 -95.3891 67° East  Level FlightAware Approximate
03:20AM 34.2939 -95.1386 67° East 506 582 37,000  Level Memphis Center
03:21AM 34.3328 -94.9925 72° East 506 582 36,900  Descending Memphis Center
03:22AM 34.3783 -94.8314 71° East 511 588 37,000  Climbing Memphis Center
03:23AM 34.4217 -94.6700 72° East 504 580 37,000  Level Memphis Center
03:24AM 34.4647 -94.5086 72° East 504 580 37,000  Level Memphis Center
03:25AM 34.5097 -94.3444 72° East 504 580 37,100  Climbing Memphis Center
03:26AM 34.5503 -94.1850 73° East 504 580 37,000 -60 Descending Memphis Center
03:27AM 34.5931 -94.0103 73° East 492 566 37,000  Level Memphis Center
03:28AM 34.6331 -93.8503 73° East 492 566 37,000  Level Memphis Center
03:29AM 34.6750 -93.6906 72° East 492 566 37,000  Level Memphis Center
03:30AM 34.7144 -93.5328 73° East 487 560 37,000  Level Memphis Center
03:31AM 34.7539 -93.3803 72° East 482 555 37,000  Level Memphis Center
03:32AM 34.7889 -93.2247 75° East 476 548 37,000  Level Memphis Center
03:33AM 34.8300 -93.0667 72° East 476 548 37,000  Level Memphis Center
03:34AM 34.8686 -92.9108 73° East 476 548 37,000  Level Memphis Center
03:35AM 34.9094 -92.7503 73° East 476 548 37,000  Level Memphis Center
03:36AM 34.9478 -92.5967 73° East 476 548 37,000  Level Memphis Center
03:37AM 34.9839 -92.4353 75° East 476 548 37,000  Level Memphis Center
03:38AM 35.0239 -92.2792 73° East 476 548 37,000  Level Memphis Center
03:39AM 35.0597 -92.1228 74° East 476 548 37,000  Level Memphis Center
03:40AM 35.0972 -91.9661 74° East 470 541 37,000  Level Memphis Center
03:41AM 35.1367 -91.8094 73° East 475 547 37,000  Level Memphis Center
03:42AM 35.1694 -91.6653 74° East 475 547 37,000  Level Memphis Center
03:43AM 35.2067 -91.5083 74° East 475 547 37,000  Level Memphis Center
03:44AM 35.2433 -91.3461 74° East 475 547 37,000  Level Memphis Center
03:45AM 35.2800 -91.1864 74° East 475 547 37,000  Level Memphis Center
03:46AM 35.3186 -91.0289 73° East 475 547 37,000  Level Memphis Center
03:47AM 35.3589 -90.8661 73° East 481 554 37,000  Level Memphis Center
03:48AM 35.3950 -90.7061 74° East 486 559 37,000  Level Memphis Center
03:49AM 35.4306 -90.5481 75° East 481 554 37,000  Level Memphis Center
03:50AM 35.4683 -90.3722 75° East 481 554 37,000  Level Memphis Center
03:51AM 35.5036 -90.2167 74° East 475 547 37,000  Level Memphis Center
03:52AM 35.5389 -90.0561 75° East 475 547 37,000  Level Memphis Center
03:53AM 35.5739 -89.8975 75° East 475 547 37,000  Level Memphis Center
03:54AM 35.6086 -89.7339 75° East 480 552 37,000  Level Memphis Center
03:55AM 35.6431 -89.5728 75° East 480 552 37,000  Level Memphis Center
03:56AM 35.6733 -89.4267 76° East 480 552 37,000  Level Memphis Center
03:57AM 35.7053 -89.2500 77° East 480 552 37,000  Level Memphis Center
03:58AM 35.7372 -89.1039 75° East 480 552 37,000  Level Memphis Center
03:59AM 35.7708 -88.9422 76° East 480 552 37,000  Level Memphis Center
04:00AM 35.8044 -88.7828 75° East 480 552 37,000  Level Memphis Center
04:01AM 35.8400 -88.6208 75° East 480 552 37,000  Level Memphis Center
04:02AM 35.8731 -88.4614 76° East 480 552 37,000  Level Memphis Center
04:03AM 35.9078 -88.2964 75° East 480 552 37,000  Level Memphis Center
04:04AM 35.9425 -88.1289 76° East 472 543 37,000  Level Memphis Center
04:05AM 35.9750 -87.9717 76° East 465 535 37,000  Level Memphis Center
04:06AM 36.0050 -87.8064 77° East 471 542 37,000  Level Memphis Center
04:07AM 36.0353 -87.6517 76° East 471 542 37,000  Level Memphis Center
04:08AM 36.0669 -87.4889 76° East 476 548 37,000  Level Memphis Center
04:09AM 36.0986 -87.3308 76° East 471 542 37,000  Level Memphis Center
04:10AM 36.1300 -87.1653 77° East 476 548 37,000  Level Memphis Center
04:11AM 36.1592 -87.0075 77° East 476 548 37,000  Level Memphis Center
04:12AM 36.1817 -86.8444 80° East 471 542 37,000  Level Memphis Center
04:13AM 36.2167 -86.6833 75° East 476 548 37,000  Level Memphis Center
04:15AM 36.2897 -86.3156 76° East 475 547 37,000  Level Indianapolis Center
04:16AM 36.3197 -86.1544 77° East 479 551 37,000  Level Indianapolis Center
04:17AM 36.3486 -85.9922 77° East 480 552 37,000  Level Indianapolis Center
04:19AM 36.3778 -85.8294 77° East 480 552 37,000  Level Indianapolis Center
04:20AM 36.4089 -85.6675 77° East 476 548 37,000  Level Indianapolis Center
04:21AM 36.4367 -85.5064 78° East 474 545 37,000  Level Indianapolis Center
04:22AM 36.4644 -85.3472 78° East 469 540 37,000 -60 Level Indianapolis Center
04:23AM 36.4919 -85.1892 78° East 467 537 36,900  Descending Indianapolis Center
04:24AM 36.5203 -85.0292 78° East 470 541 37,000  Climbing Indianapolis Center
04:25AM 36.5469 -84.8678 78° East 474 545 37,000  Level Indianapolis Center
04:26AM 36.5747 -84.7061 78° East 475 547 37,000  Level Indianapolis Center
04:27AM 36.6014 -84.5428 78° East 480 552 37,000  Level Indianapolis Center
04:28AM 36.6306 -84.3725 78° East 481 554 37,000  Level Indianapolis Center
04:29AM 36.6575 -84.2106 78° East 479 551 37,000  Level Indianapolis Center
04:30AM 36.6833 -84.0489 79° East 476 548 37,000  Level Indianapolis Center
04:31AM 36.7103 -83.8883 78° East 474 545 37,000  Level Indianapolis Center
04:32AM 36.7367 -83.7253 79° East 478 550 37,000  Level Indianapolis Center
04:33AM 36.7628 -83.5622 79° East 480 552 37,000  Level Indianapolis Center
04:34AM 36.7886 -83.3983 79° East 481 554 37,100  Climbing Indianapolis Center
04:35AM 36.8142 -83.2350 79° East 480 552 37,000 -60 Descending Indianapolis Center
04:35AM 36.8347 -83.0972 79° East 481 554 37,000  Level Atlanta Center
04:36AM 36.8606 -82.9492 78° East 486 559 37,000  Level Atlanta Center
04:37AM 36.8819 -82.7878 81° East 481 554 37,000  Level Atlanta Center
04:38AM 36.9072 -82.6214 79° East 483 556 37,000  Level Atlanta Center
04:39AM 36.9158 -82.5733 77° East 474 545 37,000  Level Indianapolis Center
04:40AM 36.9397 -82.4153 79° East 466 536 37,000  Level Indianapolis Center
04:40AM 36.9553 -82.3061 80° East 464 534 37,000  Level Atlanta Center
04:41AM 36.9781 -82.1472 80° East 464 534 37,000  Level Atlanta Center
04:42AM 36.9869 -82.0944 78° East 470 541 37,000  Level Indianapolis Center
04:43AM 37.0108 -81.9342 79° East 470 541 37,000  Level Indianapolis Center
04:44AM 37.0342 -81.7717 80° East 474 545 37,000  Level Indianapolis Center
04:45AM 37.0569 -81.6064 80° East 480 552 37,000  Level Indianapolis Center
04:45AM 37.0725 -81.4972 80° East 470 541 37,100  Climbing Atlanta Center
04:46AM 37.0961 -81.3325 80° East 470 541 37,000 -60 Descending Atlanta Center
04:47AM 37.1169 -81.1550 82° East 475 547 37,000  Level Atlanta Center
04:49AM 37.1461 -80.9600 79° East 479 551 37,000  Level Indianapolis Center
04:50AM 37.1722 -80.7681 80° East 478 550 37,000  Level Indianapolis Center
04:51AM 37.1919 -80.6133 81° East 466 536 37,000  Level Washington Center
04:52AM 37.2172 -80.4533 79° East 471 542 37,000  Level Washington Center
04:53AM 37.2897 -80.3144 57° Northeast 459 528 37,000  Level Washington Center
04:54AM 37.3611 -80.1933 53° Northeast 465 535 37,000 -300 Level Washington Center
04:55AM 37.4372 -80.0594 54° Northeast 470 541 36,400 -1,140 Descending Washington Center
04:56AM 37.5150 -79.9278 53° Northeast 470 541 34,800 -1,800 Descending Washington Center
04:57AM 37.5908 -79.7881 56° Northeast 470 541 32,800 -2,040 Descending Washington Center
04:58AM 37.6753 -79.6378 55° Northeast 475 547 30,800 -1,800 Descending Washington Center
04:59AM 37.7483 -79.5156 53° Northeast 475 547 29,300 -1,680 Descending Washington Center
05:00AM 37.8214 -79.3853 55° Northeast 470 541 27,500 -2,040 Descending Washington Center
05:01AM 37.8967 -79.2444 56° Northeast 454 522 25,300 -2,040 Descending Washington Center
05:02AM 37.9672 -79.1186 55° Northeast 441 507 23,500 -1,800 Descending Washington Center
05:03AM 38.0353 -78.9981 54° Northeast 430 495 21,700 -1,860 Descending Washington Center
05:04AM 38.1011 -78.8769 55° Northeast 425 489 19,800 -1,860 Descending Washington Center
05:05AM 38.1583 -78.7711 55° Northeast 413 475 18,000 -1,740 Descending Washington Center
05:06AM 38.2197 -78.6575 55° Northeast 403 464 16,400 -1,740 Descending Washington Center
05:07AM 38.2764 -78.5514 56° Northeast 381 438 14,600 -1,740 Descending Washington Center
05:08AM 38.3356 -78.4425 55° Northeast 375 432 13,000 -1,560 Descending Washington Center
05:09AM 38.3944 -78.3308 56° Northeast 375 432 11,500 -1,500 Descending Washington Center
05:10AM 38.4531 -78.2217 56° Northeast 370 426 10,100 -780 Descending Washington Center
05:11AM 38.5139 -78.1044 56° Northeast 375 432 10,000 -60 Descending Washington Center
05:12AM 38.5994 -78.0092 41° Northeast 385 443 10,000  Level Washington Center
05:13AM 38.7006 -77.9511 24° Northeast 385 443 10,000  Level Washington Center
05:14AM 38.7958 -77.8769 31° Northeast 391 450 10,000  Level Washington Center
05:15AM 38.8914 -77.7786 39° Northeast 402 463 10,000 -600 Level Washington Center
05:16AM 38.9572 -77.7086 40° Northeast 333 383 8,800 -1,680 Descending Washington Center
05:17AM 39.0231 -77.6436 37° Northeast 298 343 6,700 -2,340 Descending Washington Center
05:17AM 39.0500 -77.6167 38° Northeast 298 343 5,500 -2,280 Descending Potomac TRACON
05:18AM 39.1000 -77.5500 46° Northeast 286 329 3,700 -1,320 Descending Potomac TRACON
05:19AM 39.1333 -77.4833 57° Northeast 234 269 3,000 -540 Descending Potomac TRACON
05:20AM 39.1000 -77.4500 142° Southeast 162 186 2,700 -600 Descending Potomac TRACON
05:21AM 39.0500 -77.4500 180° South 156 180 1,900 -780 Descending Potomac TRACON
05:22AM 39.0167 -77.4667 201° Southwest 134 154 1,100 -780 Descending Potomac TRACON
05:24AM 38.9474 -77.4599 180° South  Level Estimated
05:31AM 38.9474 -77.4599 180° South  Level Estimated